sensor_id;sensor_type;location;lat;lon;timestamp;P1;durP1;ratioP1;P2;durP2;ratioP2
20179;SDS011;10249;48.900;9.090;2023-02-28T00:02:26;14.87;;;14.27;;
20179;SDS011;10249;48.900;9.090;2023-02-28T00:04:54;14.80;;;14.20;;
20179;SDS011;10249;48.900;9.090;2023-02-28T00:07:26;15.53;;;14.83;;
20179;SDS011;10249;48.900;9.090;2023-02-28T00:09:53;14.70;;;14.10;;
20179;SDS011;10249;48.900;9.090;2023-02-28T00:12:20;14.60;;;14.00;;
20179;SDS011;10249;48.900;9.090;2023-02-28T00:14:47;14.80;;;14.20;;
20179;SDS011;10249;48.900;9.090;2023-02-28T00:17:15;14.60;;;14.00;;
20179;SDS011;10249;48.900;9.090;2023-02-28T00:19:42;14.57;;;13.97;;
20179;SDS011;10249;48.900;9.090;2023-02-28T00:22:11;14.47;;;13.87;;
20179;SDS011;10249;48.900;9.090;2023-02-28T00:24:38;14.27;;;13.67;;
20179;SDS011;10249;48.900;9.090;2023-02-28T00:27:05;14.40;;;13.80;;
20179;SDS011;10249;48.900;9.090;2023-02-28T00:29:32;14.20;;;13.60;;
20179;SDS011;10249;48.900;9.090;2023-02-28T00:31:59;13.93;;;13.33;;
20179;SDS011;10249;48.900;9.090;2023-02-28T00:34:26;14.03;;;13.43;;
20179;SDS011;10249;48.900;9.090;2023-02-28T00:36:53;14.40;;;13.80;;
20179;SDS011;10249;48.900;9.090;2023-02-28T00:39:22;13.83;;;13.33;;
20179;SDS011;10249;48.900;9.090;2023-02-28T00:41:49;13.83;;;13.33;;
20179;SDS011;10249;48.900;9.090;2023-02-28T00:44:16;13.90;;;13.30;;
20179;SDS011;10249;48.900;9.090;2023-02-28T00:46:46;13.63;;;13.13;;
20179;SDS011;10249;48.900;9.090;2023-02-28T00:49:13;13.80;;;13.30;;
20179;SDS011;10249;48.900;9.090;2023-02-28T00:51:41;13.67;;;13.17;;
20179;SDS011;10249;48.900;9.090;2023-02-28T00:54:08;13.47;;;12.97;;
20179;SDS011;10249;48.900;9.090;2023-02-28T00:56:37;13.40;;;12.90;;
20179;SDS011;10249;48.900;9.090;2023-02-28T00:59:04;15.60;;;15.00;;
20179;SDS011;10249;48.900;9.090;2023-02-28T01:01:31;13.60;;;13.10;;
20179;SDS011;10249;48.900;9.090;2023-02-28T01:03:59;13.33;;;12.83;;
20179;SDS011;10249;48.900;9.090;2023-02-28T01:06:26;13.70;;;13.20;;
20179;SDS011;10249;48.900;9.090;2023-02-28T01:08:53;13.20;;;12.70;;
20179;SDS011;10249;48.900;9.090;2023-02-28T01:11:20;13.47;;;12.97;;
20179;SDS011;10249;48.900;9.090;2023-02-28T01:13:48;13.20;;;12.70;;
20179;SDS011;10249;48.900;9.090;2023-02-28T01:16:15;13.10;;;12.60;;
20179;SDS011;10249;48.900;9.090;2023-02-28T01:18:43;13.10;;;12.60;;
20179;SDS011;10249;48.900;9.090;2023-02-28T01:21:10;13.00;;;12.50;;
20179;SDS011;10249;48.900;9.090;2023-02-28T01:23:38;13.03;;;12.53;;
20179;SDS011;10249;48.900;9.090;2023-02-28T01:26:05;12.93;;;12.43;;
20179;SDS011;10249;48.900;9.090;2023-02-28T01:28:32;13.10;;;12.60;;
20179;SDS011;10249;48.900;9.090;2023-02-28T01:31:01;13.20;;;12.70;;
20179;SDS011;10249;48.900;9.090;2023-02-28T01:33:28;13.00;;;12.50;;
20179;SDS011;10249;48.900;9.090;2023-02-28T01:35:58;12.80;;;12.30;;
20179;SDS011;10249;48.900;9.090;2023-02-28T01:38:26;13.17;;;12.67;;
20179;SDS011;10249;48.900;9.090;2023-02-28T01:40:53;13.00;;;12.50;;
20179;SDS011;10249;48.900;9.090;2023-02-28T01:43:21;13.07;;;12.57;;
20179;SDS011;10249;48.900;9.090;2023-02-28T01:45:49;13.10;;;12.60;;
20179;SDS011;10249;48.900;9.090;2023-02-28T01:48:17;13.00;;;12.50;;
20179;SDS011;10249;48.900;9.090;2023-02-28T01:50:45;12.87;;;12.37;;
20179;SDS011;10249;48.900;9.090;2023-02-28T01:53:14;12.77;;;12.27;;
20179;SDS011;10249;48.900;9.090;2023-02-28T01:55:42;12.70;;;12.20;;
20179;SDS011;10249;48.900;9.090;2023-02-28T01:58:11;12.90;;;12.40;;
20179;SDS011;10249;48.900;9.090;2023-02-28T02:00:39;12.77;;;12.27;;
20179;SDS011;10249;48.900;9.090;2023-02-28T02:03:08;12.80;;;12.30;;
20179;SDS011;10249;48.900;9.090;2023-02-28T02:05:37;12.70;;;12.20;;
20179;SDS011;10249;48.900;9.090;2023-02-28T02:08:06;12.70;;;12.20;;
20179;SDS011;10249;48.900;9.090;2023-02-28T02:10:36;12.50;;;12.00;;
20179;SDS011;10249;48.900;9.090;2023-02-28T02:13:11;12.90;;;12.40;;
20179;SDS011;10249;48.900;9.090;2023-02-28T02:15:42;12.70;;;12.20;;
20179;SDS011;10249;48.900;9.090;2023-02-28T02:18:12;12.70;;;12.20;;
20179;SDS011;10249;48.900;9.090;2023-02-28T02:23:33;12.50;;;12.00;;
20179;SDS011;10249;48.900;9.090;2023-02-28T02:26:16;12.50;;;12.00;;
20179;SDS011;10249;48.900;9.090;2023-02-28T02:28:55;12.50;;;12.00;;
20179;SDS011;10249;48.900;9.090;2023-02-28T02:31:29;12.13;;;11.73;;
20179;SDS011;10249;48.900;9.090;2023-02-28T02:36:49;12.10;;;11.70;;
20179;SDS011;10249;48.900;9.090;2023-02-28T02:39:19;12.67;;;12.17;;
20179;SDS011;10249;48.900;9.090;2023-02-28T02:41:52;12.10;;;11.70;;
20179;SDS011;10249;48.900;9.090;2023-02-28T02:44:20;12.40;;;12.00;;
20179;SDS011;10249;48.900;9.090;2023-02-28T02:46:49;12.20;;;11.80;;
20179;SDS011;10249;48.900;9.090;2023-02-28T02:49:19;11.90;;;11.50;;
20179;SDS011;10249;48.900;9.090;2023-02-28T02:51:48;12.00;;;11.60;;
20179;SDS011;10249;48.900;9.090;2023-02-28T02:54:17;11.87;;;11.47;;
20179;SDS011;10249;48.900;9.090;2023-02-28T02:56:46;12.00;;;11.60;;
20179;SDS011;10249;48.900;9.090;2023-02-28T02:59:16;11.80;;;11.40;;
20179;SDS011;10249;48.900;9.090;2023-02-28T03:01:46;11.83;;;11.43;;
20179;SDS011;10249;48.900;9.090;2023-02-28T03:04:17;12.30;;;11.80;;
20179;SDS011;10249;48.900;9.090;2023-02-28T03:06:45;11.87;;;11.47;;
20179;SDS011;10249;48.900;9.090;2023-02-28T03:09:14;11.93;;;11.53;;
20179;SDS011;10249;48.900;9.090;2023-02-28T03:11:41;11.67;;;11.27;;
20179;SDS011;10249;48.900;9.090;2023-02-28T03:17:06;11.77;;;11.37;;
20179;SDS011;10249;48.900;9.090;2023-02-28T03:19:41;11.70;;;11.30;;
20179;SDS011;10249;48.900;9.090;2023-02-28T03:22:14;11.97;;;11.40;;
20179;SDS011;10249;48.900;9.090;2023-02-28T03:24:45;11.73;;;11.33;;
20179;SDS011;10249;48.900;9.090;2023-02-28T03:27:17;11.60;;;11.20;;
20179;SDS011;10249;48.900;9.090;2023-02-28T03:29:50;11.60;;;11.20;;
20179;SDS011;10249;48.900;9.090;2023-02-28T03:32:19;11.77;;;11.37;;
20179;SDS011;10249;48.900;9.090;2023-02-28T03:34:49;11.60;;;11.20;;
20179;SDS011;10249;48.900;9.090;2023-02-28T03:37:19;11.80;;;11.40;;
20179;SDS011;10249;48.900;9.090;2023-02-28T03:39:49;11.70;;;11.30;;
20179;SDS011;10249;48.900;9.090;2023-02-28T03:42:18;12.10;;;11.70;;
20179;SDS011;10249;48.900;9.090;2023-02-28T03:44:48;11.80;;;11.40;;
20179;SDS011;10249;48.900;9.090;2023-02-28T03:47:16;11.70;;;11.30;;
20179;SDS011;10249;48.900;9.090;2023-02-28T03:49:44;11.97;;;11.57;;
20179;SDS011;10249;48.900;9.090;2023-02-28T03:52:13;12.30;;;11.80;;
20179;SDS011;10249;48.900;9.090;2023-02-28T03:54:42;11.80;;;11.40;;
20179;SDS011;10249;48.900;9.090;2023-02-28T03:57:12;11.83;;;11.43;;
20179;SDS011;10249;48.900;9.090;2023-02-28T03:59:43;12.40;;;11.90;;
20179;SDS011;10249;48.900;9.090;2023-02-28T04:02:11;12.40;;;12.00;;
20179;SDS011;10249;48.900;9.090;2023-02-28T04:04:38;12.23;;;11.83;;
20179;SDS011;10249;48.900;9.090;2023-02-28T04:07:13;12.07;;;11.67;;
20179;SDS011;10249;48.900;9.090;2023-02-28T04:09:40;12.10;;;11.70;;
20179;SDS011;10249;48.900;9.090;2023-02-28T04:12:08;12.50;;;12.00;;
20179;SDS011;10249;48.900;9.090;2023-02-28T04:14:37;12.70;;;12.20;;
20179;SDS011;10249;48.900;9.090;2023-02-28T04:17:04;12.30;;;11.90;;
20179;SDS011;10249;48.900;9.090;2023-02-28T04:19:31;12.37;;;11.97;;
20179;SDS011;10249;48.900;9.090;2023-02-28T04:21:58;12.50;;;12.00;;
20179;SDS011;10249;48.900;9.090;2023-02-28T04:24:26;13.07;;;12.57;;
20179;SDS011;10249;48.900;9.090;2023-02-28T04:26:54;12.67;;;12.17;;
20179;SDS011;10249;48.900;9.090;2023-02-28T04:29:22;12.63;;;12.13;;
20179;SDS011;10249;48.900;9.090;2023-02-28T04:31:50;12.60;;;12.10;;
20179;SDS011;10249;48.900;9.090;2023-02-28T04:34:18;12.50;;;12.00;;
20179;SDS011;10249;48.900;9.090;2023-02-28T04:36:46;12.63;;;12.13;;
20179;SDS011;10249;48.900;9.090;2023-02-28T04:39:14;12.60;;;12.10;;
20179;SDS011;10249;48.900;9.090;2023-02-28T04:41:43;12.63;;;12.13;;
20179;SDS011;10249;48.900;9.090;2023-02-28T04:44:10;12.40;;;11.93;;
20179;SDS011;10249;48.900;9.090;2023-02-28T04:46:37;12.80;;;12.30;;
20179;SDS011;10249;48.900;9.090;2023-02-28T04:49:06;12.77;;;12.27;;
20179;SDS011;10249;48.900;9.090;2023-02-28T04:51:33;13.30;;;12.80;;
20179;SDS011;10249;48.900;9.090;2023-02-28T04:54:00;12.63;;;12.13;;
20179;SDS011;10249;48.900;9.090;2023-02-28T04:56:27;12.60;;;12.10;;
20179;SDS011;10249;48.900;9.090;2023-02-28T04:58:54;12.97;;;12.47;;
20179;SDS011;10249;48.900;9.090;2023-02-28T05:01:22;12.90;;;12.40;;
20179;SDS011;10249;48.900;9.090;2023-02-28T05:03:50;13.60;;;13.10;;
20179;SDS011;10249;48.900;9.090;2023-02-28T05:06:19;12.93;;;12.43;;
20179;SDS011;10249;48.900;9.090;2023-02-28T05:08:47;12.90;;;12.40;;
20179;SDS011;10249;48.900;9.090;2023-02-28T05:11:16;14.00;;;13.40;;
20179;SDS011;10249;48.900;9.090;2023-02-28T05:13:43;12.57;;;12.07;;
20179;SDS011;10249;48.900;9.090;2023-02-28T05:16:10;13.00;;;12.50;;
20179;SDS011;10249;48.900;9.090;2023-02-28T05:18:38;12.97;;;12.47;;
20179;SDS011;10249;48.900;9.090;2023-02-28T05:21:05;13.37;;;12.87;;
20179;SDS011;10249;48.900;9.090;2023-02-28T05:23:34;12.60;;;12.10;;
20179;SDS011;10249;48.900;9.090;2023-02-28T05:26:01;12.90;;;12.40;;
20179;SDS011;10249;48.900;9.090;2023-02-28T05:28:28;12.80;;;12.30;;
20179;SDS011;10249;48.900;9.090;2023-02-28T05:30:55;12.80;;;12.30;;
20179;SDS011;10249;48.900;9.090;2023-02-28T05:33:22;12.50;;;12.00;;
20179;SDS011;10249;48.900;9.090;2023-02-28T05:35:49;12.80;;;12.30;;
20179;SDS011;10249;48.900;9.090;2023-02-28T05:38:16;12.87;;;12.37;;
20179;SDS011;10249;48.900;9.090;2023-02-28T05:40:45;13.18;;;12.68;;
20179;SDS011;10249;48.900;9.090;2023-02-28T05:43:12;14.23;;;13.53;;
20179;SDS011;10249;48.900;9.090;2023-02-28T05:45:39;13.20;;;12.70;;
20179;SDS011;10249;48.900;9.090;2023-02-28T05:48:07;13.00;;;12.50;;
20179;SDS011;10249;48.900;9.090;2023-02-28T05:50:34;13.00;;;12.50;;
20179;SDS011;10249;48.900;9.090;2023-02-28T05:53:01;13.13;;;12.63;;
20179;SDS011;10249;48.900;9.090;2023-02-28T05:55:28;13.00;;;12.50;;
20179;SDS011;10249;48.900;9.090;2023-02-28T05:57:57;12.83;;;12.33;;
20179;SDS011;10249;48.900;9.090;2023-02-28T06:00:24;13.10;;;12.60;;
20179;SDS011;10249;48.900;9.090;2023-02-28T06:02:52;12.80;;;12.30;;
20179;SDS011;10249;48.900;9.090;2023-02-28T06:05:23;12.90;;;12.40;;
20179;SDS011;10249;48.900;9.090;2023-02-28T06:07:50;12.87;;;12.37;;
20179;SDS011;10249;48.900;9.090;2023-02-28T06:10:17;13.30;;;12.77;;
20179;SDS011;10249;48.900;9.090;2023-02-28T06:12:44;12.87;;;12.37;;
20179;SDS011;10249;48.900;9.090;2023-02-28T06:15:14;14.90;;;14.10;;
20179;SDS011;10249;48.900;9.090;2023-02-28T06:17:41;13.67;;;13.07;;
20179;SDS011;10249;48.900;9.090;2023-02-28T06:20:09;12.80;;;12.30;;
20179;SDS011;10249;48.900;9.090;2023-02-28T06:22:37;12.80;;;12.30;;
20179;SDS011;10249;48.900;9.090;2023-02-28T06:25:05;13.00;;;12.50;;
20179;SDS011;10249;48.900;9.090;2023-02-28T06:27:32;12.57;;;12.07;;
20179;SDS011;10249;48.900;9.090;2023-02-28T06:30:00;13.97;;;13.37;;
20179;SDS011;10249;48.900;9.090;2023-02-28T06:32:28;14.17;;;13.37;;
20179;SDS011;10249;48.900;9.090;2023-02-28T06:34:55;12.93;;;12.43;;
20179;SDS011;10249;48.900;9.090;2023-02-28T06:37:23;13.20;;;12.70;;
20179;SDS011;10249;48.900;9.090;2023-02-28T06:39:52;14.50;;;13.80;;
20179;SDS011;10249;48.900;9.090;2023-02-28T06:42:20;13.50;;;12.93;;
20179;SDS011;10249;48.900;9.090;2023-02-28T06:44:49;12.90;;;12.40;;
20179;SDS011;10249;48.900;9.090;2023-02-28T06:47:16;13.30;;;12.80;;
20179;SDS011;10249;48.900;9.090;2023-02-28T06:49:45;13.20;;;12.70;;
20179;SDS011;10249;48.900;9.090;2023-02-28T06:52:12;12.83;;;12.33;;
20179;SDS011;10249;48.900;9.090;2023-02-28T06:54:39;13.20;;;12.70;;
20179;SDS011;10249;48.900;9.090;2023-02-28T06:57:07;13.53;;;13.03;;
20179;SDS011;10249;48.900;9.090;2023-02-28T06:59:34;14.60;;;13.80;;
20179;SDS011;10249;48.900;9.090;2023-02-28T07:02:01;17.23;;;16.13;;
20179;SDS011;10249;48.900;9.090;2023-02-28T07:04:28;13.37;;;12.87;;
20179;SDS011;10249;48.900;9.090;2023-02-28T07:06:57;13.93;;;13.33;;
20179;SDS011;10249;48.900;9.090;2023-02-28T07:09:24;13.53;;;13.03;;
20179;SDS011;10249;48.900;9.090;2023-02-28T07:11:54;13.70;;;13.20;;
20179;SDS011;10249;48.900;9.090;2023-02-28T07:14:22;13.97;;;13.37;;
20179;SDS011;10249;48.900;9.090;2023-02-28T07:16:49;13.77;;;13.17;;
20179;SDS011;10249;48.900;9.090;2023-02-28T07:19:16;13.40;;;12.90;;
20179;SDS011;10249;48.900;9.090;2023-02-28T07:21:43;15.07;;;14.00;;
20179;SDS011;10249;48.900;9.090;2023-02-28T07:24:11;13.87;;;13.27;;
20179;SDS011;10249;48.900;9.090;2023-02-28T07:26:40;18.30;;;17.03;;
20179;SDS011;10249;48.900;9.090;2023-02-28T07:29:07;13.67;;;13.13;;
20179;SDS011;10249;48.900;9.090;2023-02-28T07:31:34;14.07;;;13.47;;
20179;SDS011;10249;48.900;9.090;2023-02-28T07:34:01;14.73;;;14.03;;
20179;SDS011;10249;48.900;9.090;2023-02-28T07:36:29;16.50;;;15.60;;
20179;SDS011;10249;48.900;9.090;2023-02-28T07:38:57;14.83;;;13.97;;
20179;SDS011;10249;48.900;9.090;2023-02-28T07:41:26;14.27;;;13.67;;
20179;SDS011;10249;48.900;9.090;2023-02-28T07:43:54;14.00;;;13.40;;
20179;SDS011;10249;48.900;9.090;2023-02-28T07:46:22;13.47;;;12.97;;
20179;SDS011;10249;48.900;9.090;2023-02-28T07:48:49;16.03;;;15.03;;
20179;SDS011;10249;48.900;9.090;2023-02-28T07:51:16;13.83;;;13.23;;
20179;SDS011;10249;48.900;9.090;2023-02-28T07:53:43;14.20;;;13.60;;
20179;SDS011;10249;48.900;9.090;2023-02-28T07:56:10;13.90;;;13.30;;
20179;SDS011;10249;48.900;9.090;2023-02-28T07:58:39;14.00;;;13.40;;
20179;SDS011;10249;48.900;9.090;2023-02-28T08:01:06;14.40;;;13.80;;
20179;SDS011;10249;48.900;9.090;2023-02-28T08:03:33;14.40;;;13.80;;
20179;SDS011;10249;48.900;9.090;2023-02-28T08:06:01;14.17;;;13.53;;
20179;SDS011;10249;48.900;9.090;2023-02-28T08:08:29;13.90;;;13.30;;
20179;SDS011;10249;48.900;9.090;2023-02-28T08:10:57;14.87;;;14.03;;
20179;SDS011;10249;48.900;9.090;2023-02-28T08:13:24;14.00;;;13.40;;
20179;SDS011;10249;48.900;9.090;2023-02-28T08:15:53;14.93;;;14.00;;
20179;SDS011;10249;48.900;9.090;2023-02-28T08:18:20;13.90;;;13.30;;
20179;SDS011;10249;48.900;9.090;2023-02-28T08:20:47;13.87;;;13.27;;
20179;SDS011;10249;48.900;9.090;2023-02-28T08:23:15;14.37;;;13.77;;
20179;SDS011;10249;48.900;9.090;2023-02-28T08:25:42;14.40;;;13.80;;
20179;SDS011;10249;48.900;9.090;2023-02-28T08:28:09;14.83;;;14.13;;
20179;SDS011;10249;48.900;9.090;2023-02-28T08:30:36;14.40;;;13.80;;
20179;SDS011;10249;48.900;9.090;2023-02-28T08:33:07;14.30;;;13.70;;
20179;SDS011;10249;48.900;9.090;2023-02-28T08:35:35;16.00;;;15.20;;
20179;SDS011;10249;48.900;9.090;2023-02-28T08:38:02;14.68;;;14.07;;
20179;SDS011;10249;48.900;9.090;2023-02-28T08:40:29;15.27;;;14.50;;
20179;SDS011;10249;48.900;9.090;2023-02-28T08:42:56;15.07;;;14.40;;
20179;SDS011;10249;48.900;9.090;2023-02-28T08:45:24;16.05;;;15.25;;
20179;SDS011;10249;48.900;9.090;2023-02-28T08:47:51;15.20;;;14.50;;
20179;SDS011;10249;48.900;9.090;2023-02-28T08:50:20;14.70;;;14.10;;
20179;SDS011;10249;48.900;9.090;2023-02-28T08:52:47;15.27;;;14.57;;
20179;SDS011;10249;48.900;9.090;2023-02-28T08:55:14;14.40;;;13.80;;
20179;SDS011;10249;48.900;9.090;2023-02-28T08:57:41;14.90;;;14.30;;
20179;SDS011;10249;48.900;9.090;2023-02-28T09:00:09;14.80;;;14.20;;
20179;SDS011;10249;48.900;9.090;2023-02-28T09:02:38;15.40;;;14.70;;
20179;SDS011;10249;48.900;9.090;2023-02-28T09:05:05;15.10;;;14.40;;
20179;SDS011;10249;48.900;9.090;2023-02-28T09:07:34;15.03;;;14.37;;
20179;SDS011;10249;48.900;9.090;2023-02-28T09:10:01;16.57;;;15.80;;
20179;SDS011;10249;48.900;9.090;2023-02-28T09:12:28;14.97;;;14.37;;
20179;SDS011;10249;48.900;9.090;2023-02-28T09:14:58;17.83;;;16.70;;
20179;SDS011;10249;48.900;9.090;2023-02-28T09:17:25;15.20;;;14.50;;
20179;SDS011;10249;48.900;9.090;2023-02-28T09:19:52;15.40;;;14.70;;
20179;SDS011;10249;48.900;9.090;2023-02-28T09:22:19;15.30;;;14.60;;
20179;SDS011;10249;48.900;9.090;2023-02-28T09:24:48;15.73;;;14.93;;
20179;SDS011;10249;48.900;9.090;2023-02-28T09:27:15;16.13;;;15.33;;
20179;SDS011;10249;48.900;9.090;2023-02-28T09:29:42;16.83;;;16.10;;
20179;SDS011;10249;48.900;9.090;2023-02-28T09:32:09;15.20;;;14.50;;
20179;SDS011;10249;48.900;9.090;2023-02-28T09:34:36;15.90;;;15.10;;
20179;SDS011;10249;48.900;9.090;2023-02-28T09:37:04;15.23;;;14.53;;
20179;SDS011;10249;48.900;9.090;2023-02-28T09:39:31;15.57;;;14.87;;
20179;SDS011;10249;48.900;9.090;2023-02-28T09:41:59;16.40;;;15.60;;
20179;SDS011;10249;48.900;9.090;2023-02-28T09:44:28;17.00;;;16.20;;
20179;SDS011;10249;48.900;9.090;2023-02-28T09:46:58;17.50;;;16.50;;
20179;SDS011;10249;48.900;9.090;2023-02-28T09:49:28;16.80;;;16.00;;
20179;SDS011;10249;48.900;9.090;2023-02-28T09:51:58;15.97;;;15.27;;
20179;SDS011;10249;48.900;9.090;2023-02-28T09:54:27;17.37;;;16.57;;
20179;SDS011;10249;48.900;9.090;2023-02-28T09:56:56;15.90;;;15.20;;
20179;SDS011;10249;48.900;9.090;2023-02-28T09:59:31;16.90;;;16.10;;
20179;SDS011;10249;48.900;9.090;2023-02-28T10:02:04;16.10;;;15.40;;
20179;SDS011;10249;48.900;9.090;2023-02-28T10:04:37;16.23;;;15.43;;
20179;SDS011;10249;48.900;9.090;2023-02-28T10:07:10;16.30;;;15.60;;
20179;SDS011;10249;48.900;9.090;2023-02-28T10:09:42;15.90;;;15.20;;
20179;SDS011;10249;48.900;9.090;2023-02-28T10:12:12;15.70;;;15.00;;
20179;SDS011;10249;48.900;9.090;2023-02-28T10:14:40;16.60;;;15.80;;
20179;SDS011;10249;48.900;9.090;2023-02-28T10:17:11;16.40;;;15.70;;
20179;SDS011;10249;48.900;9.090;2023-02-28T10:19:40;15.83;;;15.13;;
20179;SDS011;10249;48.900;9.090;2023-02-28T10:22:09;16.77;;;15.97;;
20179;SDS011;10249;48.900;9.090;2023-02-28T10:24:38;16.90;;;16.10;;
20179;SDS011;10249;48.900;9.090;2023-02-28T10:27:12;17.10;;;16.30;;
20179;SDS011;10249;48.900;9.090;2023-02-28T10:29:42;18.13;;;17.23;;
20179;SDS011;10249;48.900;9.090;2023-02-28T10:32:10;16.70;;;15.90;;
20179;SDS011;10249;48.900;9.090;2023-02-28T10:34:38;16.20;;;15.47;;
20179;SDS011;10249;48.900;9.090;2023-02-28T10:37:05;17.47;;;16.67;;
20179;SDS011;10249;48.900;9.090;2023-02-28T10:39:40;16.47;;;15.67;;
20179;SDS011;10249;48.900;9.090;2023-02-28T10:42:18;16.47;;;15.67;;
20179;SDS011;10249;48.900;9.090;2023-02-28T10:44:47;15.97;;;15.17;;
20179;SDS011;10249;48.900;9.090;2023-02-28T10:47:15;17.40;;;16.60;;
20179;SDS011;10249;48.900;9.090;2023-02-28T10:49:46;19.93;;;18.83;;
20179;SDS011;10249;48.900;9.090;2023-02-28T10:52:14;17.00;;;16.20;;
20179;SDS011;10249;48.900;9.090;2023-02-28T10:55:13;17.93;;;16.93;;
20179;SDS011;10249;48.900;9.090;2023-02-28T10:57:40;15.63;;;14.93;;
20179;SDS011;10249;48.900;9.090;2023-02-28T11:00:12;16.80;;;15.77;;
20179;SDS011;10249;48.900;9.090;2023-02-28T11:02:40;15.30;;;14.60;;
20179;SDS011;10249;48.900;9.090;2023-02-28T11:05:25;15.47;;;14.77;;
20179;SDS011;10249;48.900;9.090;2023-02-28T11:07:53;16.77;;;15.97;;
20179;SDS011;10249;48.900;9.090;2023-02-28T11:10:21;16.70;;;15.70;;
20179;SDS011;10249;48.900;9.090;2023-02-28T11:12:53;17.00;;;16.20;;
20179;SDS011;10249;48.900;9.090;2023-02-28T11:15:23;16.83;;;15.93;;
20179;SDS011;10249;48.900;9.090;2023-02-28T11:17:53;16.23;;;15.43;;
20179;SDS011;10249;48.900;9.090;2023-02-28T11:20:21;16.70;;;15.80;;
20179;SDS011;10249;48.900;9.090;2023-02-28T11:22:50;16.73;;;15.93;;
20179;SDS011;10249;48.900;9.090;2023-02-28T11:25:19;16.17;;;15.37;;
20179;SDS011;10249;48.900;9.090;2023-02-28T11:27:48;17.20;;;16.03;;
20179;SDS011;10249;48.900;9.090;2023-02-28T11:30:36;15.40;;;14.60;;
20179;SDS011;10249;48.900;9.090;2023-02-28T11:33:23;15.50;;;14.70;;
20179;SDS011;10249;48.900;9.090;2023-02-28T11:35:53;16.17;;;15.37;;
20179;SDS011;10249;48.900;9.090;2023-02-28T11:38:23;16.00;;;15.20;;
20179;SDS011;10249;48.900;9.090;2023-02-28T11:40:54;16.30;;;15.50;;
20179;SDS011;10249;48.900;9.090;2023-02-28T11:43:27;16.57;;;15.67;;
20179;SDS011;10249;48.900;9.090;2023-02-28T11:46:13;16.33;;;15.53;;
20179;SDS011;10249;48.900;9.090;2023-02-28T11:48:44;17.50;;;16.60;;
20179;SDS011;10249;48.900;9.090;2023-02-28T11:51:18;16.60;;;15.80;;
20179;SDS011;10249;48.900;9.090;2023-02-28T11:53:55;16.60;;;15.80;;
20179;SDS011;10249;48.900;9.090;2023-02-28T11:56:25;16.87;;;16.07;;
20179;SDS011;10249;48.900;9.090;2023-02-28T11:59:00;17.00;;;16.20;;
20179;SDS011;10249;48.900;9.090;2023-02-28T12:01:38;17.00;;;16.20;;
20179;SDS011;10249;48.900;9.090;2023-02-28T12:04:14;16.70;;;15.90;;
20179;SDS011;10249;48.900;9.090;2023-02-28T12:06:45;16.53;;;15.73;;
20179;SDS011;10249;48.900;9.090;2023-02-28T12:09:28;16.60;;;15.80;;
20179;SDS011;10249;48.900;9.090;2023-02-28T12:12:00;16.17;;;15.37;;
20179;SDS011;10249;48.900;9.090;2023-02-28T12:14:42;16.50;;;15.70;;
20179;SDS011;10249;48.900;9.090;2023-02-28T12:17:18;16.00;;;15.20;;
20179;SDS011;10249;48.900;9.090;2023-02-28T12:19:49;16.50;;;15.70;;
20179;SDS011;10249;48.900;9.090;2023-02-28T12:25:09;16.03;;;15.23;;
20179;SDS011;10249;48.900;9.090;2023-02-28T12:27:43;18.30;;;17.20;;
20179;SDS011;10249;48.900;9.090;2023-02-28T12:30:13;16.50;;;15.70;;
20179;SDS011;10249;48.900;9.090;2023-02-28T12:32:45;16.10;;;15.30;;
20179;SDS011;10249;48.900;9.090;2023-02-28T12:35:14;16.13;;;15.33;;
20179;SDS011;10249;48.900;9.090;2023-02-28T12:37:44;17.80;;;16.67;;
20179;SDS011;10249;48.900;9.090;2023-02-28T12:40:14;17.40;;;16.33;;
20179;SDS011;10249;48.900;9.090;2023-02-28T12:42:43;16.73;;;15.93;;
20179;SDS011;10249;48.900;9.090;2023-02-28T12:45:12;16.57;;;15.77;;
20179;SDS011;10249;48.900;9.090;2023-02-28T12:47:42;16.80;;;15.90;;
20179;SDS011;10249;48.900;9.090;2023-02-28T12:50:12;16.83;;;16.00;;
20179;SDS011;10249;48.900;9.090;2023-02-28T12:52:41;15.70;;;14.90;;
20179;SDS011;10249;48.900;9.090;2023-02-28T12:55:12;16.27;;;15.47;;
20179;SDS011;10249;48.900;9.090;2023-02-28T12:57:42;16.23;;;15.43;;
20179;SDS011;10249;48.900;9.090;2023-02-28T13:00:13;16.20;;;15.40;;
20179;SDS011;10249;48.900;9.090;2023-02-28T13:08:26;17.63;;;16.63;;
20179;SDS011;10249;48.900;9.090;2023-02-28T13:10:57;17.60;;;16.70;;
20179;SDS011;10249;48.900;9.090;2023-02-28T13:13:24;17.67;;;16.67;;
20179;SDS011;10249;48.900;9.090;2023-02-28T13:15:58;16.90;;;16.00;;
20179;SDS011;10249;48.900;9.090;2023-02-28T13:18:29;16.40;;;15.57;;
20179;SDS011;10249;48.900;9.090;2023-02-28T13:20:57;19.17;;;18.07;;
20179;SDS011;10249;48.900;9.090;2023-02-28T13:23:37;17.53;;;16.43;;
20179;SDS011;10249;48.900;9.090;2023-02-28T13:26:05;17.03;;;16.13;;
20179;SDS011;10249;48.900;9.090;2023-02-28T13:34:15;17.10;;;16.20;;
20179;SDS011;10249;48.900;9.090;2023-02-28T13:36:42;16.47;;;15.57;;
20179;SDS011;10249;48.900;9.090;2023-02-28T13:47:33;20.03;;;18.73;;
20179;SDS011;10249;48.900;9.090;2023-02-28T13:50:14;16.60;;;15.70;;
20179;SDS011;10249;48.900;9.090;2023-02-28T13:52:43;18.03;;;16.97;;
20179;SDS011;10249;48.900;9.090;2023-02-28T13:55:17;16.70;;;15.80;;
20179;SDS011;10249;48.900;9.090;2023-02-28T14:00:35;17.00;;;16.00;;
20179;SDS011;10249;48.900;9.090;2023-02-28T14:03:07;20.17;;;18.70;;
20179;SDS011;10249;48.900;9.090;2023-02-28T14:05:37;17.00;;;16.00;;
20179;SDS011;10249;48.900;9.090;2023-02-28T14:08:06;17.10;;;16.20;;
20179;SDS011;10249;48.900;9.090;2023-02-28T14:10:40;16.70;;;15.80;;
20179;SDS011;10249;48.900;9.090;2023-02-28T14:13:13;16.90;;;16.00;;
20179;SDS011;10249;48.900;9.090;2023-02-28T14:15:43;17.67;;;16.73;;
20179;SDS011;10249;48.900;9.090;2023-02-28T14:18:16;17.30;;;16.40;;
20179;SDS011;10249;48.900;9.090;2023-02-28T14:20:44;15.63;;;14.83;;
20179;SDS011;10249;48.900;9.090;2023-02-28T14:23:14;16.30;;;15.40;;
20179;SDS011;10249;48.900;9.090;2023-02-28T14:25:44;16.90;;;15.70;;
20179;SDS011;10249;48.900;9.090;2023-02-28T14:28:16;16.23;;;15.33;;
20179;SDS011;10249;48.900;9.090;2023-02-28T14:30:53;15.70;;;14.90;;
20179;SDS011;10249;48.900;9.090;2023-02-28T14:33:26;16.47;;;15.57;;
20179;SDS011;10249;48.900;9.090;2023-02-28T14:35:57;17.30;;;16.40;;
20179;SDS011;10249;48.900;9.090;2023-02-28T14:38:27;17.10;;;16.20;;
20179;SDS011;10249;48.900;9.090;2023-02-28T14:40:56;17.87;;;16.80;;
20179;SDS011;10249;48.900;9.090;2023-02-28T14:43:24;16.07;;;15.17;;
20179;SDS011;10249;48.900;9.090;2023-02-28T14:45:52;16.80;;;15.80;;
20179;SDS011;10249;48.900;9.090;2023-02-28T14:48:20;17.80;;;16.80;;
20179;SDS011;10249;48.900;9.090;2023-02-28T14:50:51;17.00;;;16.10;;
20179;SDS011;10249;48.900;9.090;2023-02-28T14:53:18;19.93;;;18.77;;
20179;SDS011;10249;48.900;9.090;2023-02-28T14:55:47;18.70;;;17.70;;
20179;SDS011;10249;48.900;9.090;2023-02-28T14:58:20;16.33;;;15.43;;
20179;SDS011;10249;48.900;9.090;2023-02-28T15:00:48;16.40;;;15.60;;
20179;SDS011;10249;48.900;9.090;2023-02-28T15:03:18;19.00;;;17.90;;
20179;SDS011;10249;48.900;9.090;2023-02-28T15:05:52;18.08;;;17.00;;
20179;SDS011;10249;48.900;9.090;2023-02-28T15:08:20;17.10;;;16.20;;